Etusivu
METAR-TAF:

METAR-TAF

Lentoasemat :

Beaumont, Texas, Yhdysvallat

Leveyspiiri: 30-04-13N, Pituuspiiri: 094-12-54W, korkeus merenpinnasta: 10 m

Tämänhetkinen sää

Tämä raportti tehtiin 23 minuuttia sitten, kello 22.35 UTC
Tuuli 6 kn idästä/kaakosta
Lämpötila 33°C
Kosteus 49%
Ilmanpaine 1015 hPa
selkeää

METAR: KBMT 222235Z AUTO 12006KT CLR 33/21 A2996 RMK AO2 T03290206 PWINO

Aika: 16:58 (22:58 UTC)


TAF: puuttuu

Säähavainnot ja -ennusteet yli 4000 lentoasemalta (METAR- ja TAF-raportit).

Käytössä olevat sääasemat on merkitty karttaan keltaisilla ja punaisilla pisteillä.

Aseta hiiri pisteen päälle nähdäksesi sääaseman nimen.

Klikkaa sitten nähdäksesi säähavainnot ja -ennusteet.

Kartan vaihtaminen: klikkaa mustalla rastilla varustettuja vihreitä pisteitä, niin voit zoomata sisään; viivalla varustettua vihreää pistettä, niin voit zoomata ulos tai vihreitä nuolia, niin pääset viereisille kartoille.


METAR-TAF: